METAR Data
IDs: Format: Raw Decoded Include TAF

Data at: 0218 UTC 29 Nov 2020

Region: TOP
KATL 290152Z 33003KT 10SM SCT200 OVC250 14/07 A3010 RMK AO2 SLP194 T01390067

KBOS 290154Z 29007KT 10SM CLR 06/M02 A2999 RMK AO2 SLP156 T00611017

KBWI 290154Z 29004KT 10SM CLR 07/M02 A3012 RMK AO2 SLP198 T00671017

KCLE 290151Z 20007KT 10SM SCT250 03/M02 A3010 RMK AO2 SLP216 T00281022

KCLT 290152Z 10006KT 10SM FEW250 14/04 A3011 RMK AO2 SLP194 T01440044 $

KCVG 290152Z 00000KT 10SM CLR 03/M02 A3017 RMK AO2 SLP219 T00331022

KDCA 290152Z 33006KT 10SM CLR 08/M01 A3013 RMK AO2 SLP204 T00831011

KDEN 290153Z 17005KT 10SM CLR 03/M08 A3004 RMK AO2 SLP179 T00331078

KDFW 290153Z 30009KT 2 1/2SM RA BR SCT004 BKN008 OVC012 10/09 A3010 RMK AO2 TWR VIS 3 SLP190 P0007 T01000094

KDTW 290153Z 21011KT 10SM CLR 03/M03 A3006 RMK AO2 SLP186 T00331028 $

KEWR 290151Z 31008KT 10SM CLR 08/M01 A3008 RMK AO2 SLP186 T00781011

KFLL 290153Z 20003KT 10SM FEW035 BKN065 24/19 A3004 RMK AO2 SLP171 T02390189 $

KIAD 290152Z 00000KT 10SM CLR 06/M02 A3014 RMK AO2 SLP206 T00561022

KIAH 290153Z 04007KT 7SM -RA OVC004 16/15 A3002 RMK AO2 SLP166 P0002 T01610150

KJFK 290151Z 32013KT 10SM CLR 08/00 A3008 RMK AO2 SLP184 T00780000

KLAS 290156Z 00000KT 10SM CLR 12/M09 A3020 RMK AO2 SLP229 T01171094

KLAX 290153Z 30006KT 10SM CLR 17/00 A3010 RMK AO2 SLP191 T01670000

KLGA 290151Z 31010KT 10SM CLR 09/00 A3007 RMK AO2 SLP183 T00940000

KMCO 290153Z 31005KT 10SM SCT100 BKN250 22/16 A3004 RMK AO2 SLP171 T02220161

KMDW 290153Z 22012KT 10SM CLR 07/01 A3005 RMK AO2 SLP187 T00670011 $

KMEM 290154Z 00000KT 10SM FEW150 OVC240 09/M03 A3016 RMK AO2 SLP214 T00891033 $

KMIA 290153Z 15003KT 10SM OVC060 24/21 A3005 RMK AO2 SLP176 T02390206 $

KMSP 290153Z 22008KT 10SM CLR 06/M01 A2986 RMK AO2 SLP120 T00611006

KORD 290151Z 22013G24KT 10SM CLR 07/02 A3003 RMK AO2 SLP175 T00720017 $

KPDX 290153Z 30007KT 10SM SCT007 OVC011 07/05 A3037 RMK AO2 SLP283 T00670050

KPHL 290154Z 00000KT 10SM CLR 07/M01 A3010 RMK AO2 SLP192 T00721011

KPHX 290151Z 27003KT 10SM CLR 17/M02 A3008 RMK AO2 SLP181 T01721022 $

KPIT 290151Z 22003KT 10SM CLR 03/M04 A3015 RMK AO2 SLP225 T00331044

KSAN 290151Z 00000KT 10SM CLR 16/M01 A3010 RMK AO2 SLP192 T01611006

KSEA 290153Z 03006KT 10SM FEW040 FEW250 06/04 A3038 RMK AO2 SLP296 T00610044

KSFO 290156Z 29006KT 10SM CLR 13/02 A3018 RMK AO2 SLP220 T01280017

KSLC 290154Z 33006KT 10SM FEW230 01/M04 A3032 RMK AO2 SLP283 T00061039 $

KSTL 290151Z 18009KT 10SM FEW200 08/M01 A3016 RMK AO2 SLP219 T00831011

KTPA 290153Z 00000KT 10SM BKN070 21/18 A3004 RMK AO2 SLP173 T02060178